createdAt,value
2017-05-25T00:02:03.213Z,76.90
2017-05-25T00:04:31.521Z,77.50
2017-05-25T00:06:59.848Z,78.30
2017-05-25T00:09:28.155Z,78.80
2017-05-25T00:11:56.479Z,79.10
2017-05-25T00:14:24.781Z,79.40
2017-05-25T00:16:53.123Z,78.10
2017-05-25T00:19:21.439Z,74.40
2017-05-25T00:21:49.743Z,75.20
2017-05-25T00:24:18.072Z,78.00
2017-05-25T00:26:46.373Z,79.70
2017-05-25T00:29:14.691Z,78.90
2017-05-25T00:31:42.992Z,78.50
2017-05-25T00:34:11.334Z,78.60
2017-05-25T00:36:39.636Z,79.30
2017-05-25T00:39:07.936Z,78.90
2017-05-25T00:41:36.256Z,79.70
2017-05-25T00:44:04.559Z,79.70
2017-05-25T00:46:32.887Z,78.90
2017-05-25T00:49:01.196Z,78.50
2017-05-25T00:51:29.529Z,77.90
2017-05-25T00:53:57.828Z,79.70
2017-05-25T00:56:26.123Z,80.70
2017-05-25T00:58:54.438Z,79.10
2017-05-25T01:01:22.744Z,77.80
2017-05-25T01:03:51.063Z,77.80
2017-05-25T01:06:19.368Z,77.70
2017-05-25T01:08:47.697Z,78.20
2017-05-25T01:11:15.997Z,78.40
2017-05-25T01:13:44.293Z,78.90
2017-05-25T01:16:12.614Z,78.30
2017-05-25T01:18:40.920Z,78.80
2017-05-25T01:21:09.239Z,79.00
2017-05-25T01:23:37.542Z,79.40
2017-05-25T01:26:05.876Z,79.90
2017-05-25T01:28:34.171Z,80.90
2017-05-25T01:31:02.462Z,81.00
2017-05-25T01:33:30.786Z,80.00
2017-05-25T01:35:59.083Z,79.30
2017-05-25T01:38:27.402Z,77.80
2017-05-25T01:40:55.718Z,77.20
2017-05-25T01:43:24.051Z,78.50
2017-05-25T01:45:52.348Z,80.20
2017-05-25T01:48:20.651Z,80.20
2017-05-25T01:50:48.968Z,80.70
2017-05-25T01:53:17.265Z,80.90
2017-05-25T01:55:45.589Z,79.00
2017-05-25T01:58:13.897Z,77.90
2017-05-25T02:00:42.233Z,79.60
2017-05-25T02:03:10.535Z,81.50
2017-05-25T02:05:38.844Z,81.80
2017-05-25T02:08:07.164Z,81.00
2017-05-25T02:10:35.472Z,81.00
2017-05-25T02:13:03.786Z,80.40
2017-05-25T02:15:32.083Z,79.40
2017-05-25T02:18:00.415Z,80.20
2017-05-25T02:20:28.708Z,80.90
2017-05-25T02:22:57.008Z,80.50
2017-05-25T02:25:25.327Z,80.30
2017-05-25T02:27:53.623Z,81.10
2017-05-25T02:30:21.941Z,80.50
2017-05-25T02:32:50.240Z,80.50
2017-05-25T02:35:18.955Z,80.10
2017-05-25T02:37:47.254Z,78.20
2017-05-25T02:40:15.547Z,76.70
2017-05-25T02:42:43.867Z,77.50
2017-05-25T02:45:12.168Z,78.50
2017-05-25T02:47:40.491Z,78.90
2017-05-25T02:50:08.796Z,78.40
2017-05-25T02:52:37.211Z,79.20
2017-05-25T02:55:05.584Z,81.10
2017-05-25T02:57:33.950Z,81.80
2017-05-25T03:00:02.283Z,80.90
2017-05-25T03:02:30.588Z,80.50
2017-05-25T03:04:58.907Z,79.60
2017-05-25T03:07:27.203Z,79.60
2017-05-25T03:09:55.537Z,79.80
2017-05-25T03:12:23.841Z,80.10
2017-05-25T03:14:52.136Z,80.00
2017-05-25T03:17:20.458Z,80.40
2017-05-25T03:19:48.751Z,81.20
2017-05-25T03:22:17.072Z,81.00
2017-05-25T03:24:45.365Z,81.80
2017-05-25T03:27:13.687Z,82.10
2017-05-25T03:29:41.988Z,82.10
2017-05-25T03:32:10.295Z,82.00
2017-05-25T03:34:38.619Z,82.20
2017-05-25T03:37:06.929Z,82.30
2017-05-25T03:39:35.241Z,82.30
2017-05-25T03:42:03.541Z,82.10
2017-05-25T03:44:31.882Z,81.40
2017-05-25T03:47:00.188Z,81.90
2017-05-25T03:49:28.496Z,81.60
2017-05-25T03:51:56.820Z,80.70
2017-05-25T03:54:25.120Z,80.80
2017-05-25T03:56:53.448Z,81.60
2017-05-25T03:59:21.749Z,82.40
2017-05-25T04:01:50.072Z,82.60
2017-05-25T04:04:18.380Z,82.30
2017-05-25T04:06:46.688Z,82.00
2017-05-25T04:09:15.012Z,82.60
2017-05-25T04:11:43.323Z,81.80
2017-05-25T04:14:11.649Z,81.80
2017-05-25T04:16:39.947Z,82.30
2017-05-25T04:19:08.297Z,82.60
2017-05-25T04:21:36.604Z,82.60
2017-05-25T04:24:04.907Z,83.10
2017-05-25T04:26:33.235Z,82.90
2017-05-25T04:29:01.582Z,81.30
2017-05-25T04:31:29.903Z,81.40
2017-05-25T04:33:58.221Z,81.50
2017-05-25T04:36:26.564Z,81.30
2017-05-25T04:38:54.911Z,81.50
2017-05-25T04:41:23.267Z,81.40
2017-05-25T04:43:51.601Z,81.60
2017-05-25T04:46:19.904Z,82.10
2017-05-25T04:48:48.228Z,82.20
2017-05-25T04:51:16.556Z,81.70
2017-05-25T04:53:44.909Z,81.40
2017-05-25T04:56:13.228Z,81.10
2017-05-25T04:58:41.545Z,80.60
2017-05-25T05:01:09.876Z,80.40
2017-05-25T05:03:38.212Z,80.30
2017-05-25T05:06:06.558Z,80.20
2017-05-25T05:08:34.880Z,80.60
2017-05-25T05:11:03.221Z,80.10
2017-05-25T05:13:31.557Z,79.30
2017-05-25T05:15:59.876Z,78.30
2017-05-25T05:18:28.227Z,79.00
2017-05-25T05:20:56.528Z,79.40
2017-05-25T05:23:24.828Z,79.50
2017-05-25T05:25:53.159Z,78.70
2017-05-25T05:28:21.649Z,78.60
2017-05-25T05:30:49.992Z,78.30
2017-05-25T05:33:18.296Z,77.50
2017-05-25T05:35:46.603Z,76.70
2017-05-25T05:38:14.936Z,76.50
2017-05-25T05:40:43.261Z,76.00
2017-05-25T05:43:11.588Z,75.10
2017-05-25T05:45:39.911Z,74.00
2017-05-25T05:48:08.262Z,71.10
2017-05-25T05:50:36.572Z,68.30
2017-05-25T05:53:04.889Z,64.70
2017-05-25T05:55:33.238Z,61.00
2017-05-25T05:58:01.556Z,57.10
2017-05-25T06:00:29.893Z,55.80
2017-05-25T06:02:58.238Z,56.10
2017-05-25T06:05:26.626Z,55.70
2017-05-25T06:07:54.945Z,55.90
2017-05-25T06:10:23.265Z,56.70
2017-05-25T06:12:51.597Z,56.10
2017-05-25T06:15:19.909Z,54.50
2017-05-25T06:17:48.247Z,53.30
2017-05-25T06:20:16.567Z,52.00
2017-05-25T06:22:44.916Z,50.90
2017-05-25T06:25:13.225Z,48.80
2017-05-25T06:27:41.536Z,47.00
2017-05-25T06:30:09.864Z,46.70
2017-05-25T06:32:38.174Z,45.90
2017-05-25T06:35:06.508Z,46.10
2017-05-25T06:37:34.820Z,45.40
2017-05-25T06:40:03.180Z,44.70
2017-05-25T06:42:31.493Z,42.50
2017-05-25T06:44:59.818Z,41.50
2017-05-25T06:47:28.164Z,40.80
2017-05-25T06:49:56.492Z,39.00
2017-05-25T06:52:24.821Z,38.10
2017-05-25T06:54:52.368Z,38.10
2017-05-25T06:57:20.718Z,38.50
2017-05-25T06:59:49.028Z,38.30
2017-05-25T07:02:17.339Z,37.70
2017-05-25T07:04:45.668Z,37.20
2017-05-25T07:07:14.077Z,37.30
2017-05-25T07:09:42.504Z,38.50
2017-05-25T07:12:10.831Z,37.40
2017-05-25T07:14:39.174Z,37.00
2017-05-25T07:17:07.488Z,36.30
2017-05-25T07:19:35.796Z,36.10
2017-05-25T07:22:04.153Z,36.80
2017-05-25T07:24:32.488Z,37.70
2017-05-25T07:27:00.867Z,39.20
2017-05-25T07:29:30.048Z,38.70
2017-05-25T07:31:58.425Z,38.40
2017-05-25T07:34:26.740Z,36.50
2017-05-25T07:36:55.056Z,37.40
2017-05-25T07:39:23.397Z,38.60
2017-05-25T07:41:51.719Z,39.10
2017-05-25T07:44:20.045Z,38.70
2017-05-25T07:46:48.368Z,39.20
2017-05-25T07:49:16.709Z,39.70
2017-05-25T07:51:45.033Z,40.60
2017-05-25T07:54:13.350Z,43.00
2017-05-25T07:56:41.677Z,44.70
2017-05-25T07:59:09.992Z,43.90
2017-05-25T08:01:38.331Z,46.40
2017-05-25T08:04:05.880Z,46.30
2017-05-25T08:06:34.228Z,44.00
2017-05-25T08:09:02.573Z,43.10
2017-05-25T08:11:30.888Z,43.40
2017-05-25T08:13:59.229Z,44.80
2017-05-25T08:16:27.580Z,43.30
2017-05-25T08:18:55.919Z,44.90
2017-05-25T08:21:24.228Z,46.60
2017-05-25T08:23:52.595Z,47.40
2017-05-25T08:26:20.923Z,50.10
2017-05-25T08:28:49.283Z,48.70
2017-05-25T08:31:17.636Z,47.50
2017-05-25T08:33:45.949Z,48.00
2017-05-25T08:36:14.295Z,46.60
2017-05-25T08:38:42.611Z,43.70
2017-05-25T08:41:10.952Z,41.60
2017-05-25T08:43:39.279Z,44.20
2017-05-25T08:46:07.613Z,43.40
2017-05-25T08:48:35.936Z,45.10
2017-05-25T08:51:04.266Z,46.80
2017-05-25T08:53:32.588Z,45.10
2017-05-25T08:56:00.926Z,44.20
2017-05-25T08:58:29.304Z,40.60
2017-05-25T09:00:57.612Z,41.90
2017-05-25T09:03:25.984Z,40.00
2017-05-25T09:05:54.304Z,41.20
2017-05-25T09:08:22.641Z,38.70
2017-05-25T09:10:50.965Z,39.20
2017-05-25T09:13:19.337Z,37.20
2017-05-25T09:15:47.665Z,37.70
2017-05-25T09:18:16.023Z,38.40
2017-05-25T09:20:44.379Z,38.30
2017-05-25T09:23:12.696Z,33.70
2017-05-25T09:25:41.040Z,32.10
2017-05-25T09:28:09.368Z,34.60
2017-05-25T09:30:37.718Z,32.70
2017-05-25T09:33:06.023Z,34.80
2017-05-25T09:35:34.791Z,34.90
2017-05-25T09:38:03.323Z,35.80
2017-05-25T09:40:31.620Z,37.00
2017-05-25T09:42:59.951Z,37.90
2017-05-25T09:45:28.272Z,38.40
2017-05-25T09:47:56.651Z,38.20
2017-05-25T09:50:24.961Z,39.30
2017-05-25T09:52:53.279Z,38.00
2017-05-25T09:55:21.616Z,36.10
2017-05-25T09:57:49.957Z,31.70
2017-05-25T10:00:18.293Z,31.80
2017-05-25T10:02:46.607Z,31.00
2017-05-25T10:05:14.946Z,32.30
2017-05-25T10:07:43.257Z,32.00
2017-05-25T10:10:11.626Z,31.40
2017-05-25T10:12:39.945Z,29.90
2017-05-25T10:15:08.250Z,30.80
2017-05-25T10:17:36.652Z,32.80
2017-05-25T10:20:04.977Z,30.80
2017-05-25T10:22:33.321Z,32.60
2017-05-25T10:25:01.643Z,32.10
2017-05-25T10:27:30.032Z,29.70
2017-05-25T10:29:58.352Z,28.70
2017-05-25T10:32:26.701Z,29.00
2017-05-25T10:34:55.032Z,29.30
2017-05-25T10:37:23.367Z,27.10
2017-05-25T10:39:51.703Z,29.40
2017-05-25T10:42:20.037Z,27.00
2017-05-25T10:44:48.415Z,29.10
2017-05-25T10:47:16.739Z,31.60
2017-05-25T10:49:45.073Z,30.30
2017-05-25T10:52:13.383Z,28.10
2017-05-25T10:54:41.772Z,30.00
2017-05-25T10:57:10.080Z,30.30
2017-05-25T10:59:38.419Z,29.90
2017-05-25T11:02:06.757Z,27.50
2017-05-25T11:04:35.084Z,26.10
2017-05-25T11:07:03.415Z,28.00
2017-05-25T11:09:31.735Z,26.80
2017-05-25T11:12:00.067Z,25.40
2017-05-25T11:14:28.388Z,25.20
2017-05-25T11:16:56.745Z,25.80
2017-05-25T11:19:25.062Z,26.70
2017-05-25T11:21:53.373Z,22.40
2017-05-25T11:24:21.708Z,24.50
2017-05-25T11:26:50.030Z,25.20
2017-05-25T11:29:18.364Z,28.10
2017-05-25T11:31:46.677Z,25.60
2017-05-25T11:34:15.012Z,26.50
2017-05-25T11:36:43.324Z,26.90
2017-05-25T11:39:11.672Z,27.50
2017-05-25T11:41:39.996Z,28.70
2017-05-25T11:44:08.311Z,26.90
2017-05-25T11:46:36.695Z,29.20
2017-05-25T11:49:05.057Z,26.40
2017-05-25T11:51:33.389Z,28.10
2017-05-25T11:54:01.716Z,28.50
2017-05-25T11:56:30.060Z,28.40
2017-05-25T11:58:58.377Z,27.80
2017-05-25T12:01:26.742Z,29.90
2017-05-25T12:03:55.079Z,28.60
2017-05-25T12:06:23.400Z,25.40
2017-05-25T12:08:51.724Z,28.40
2017-05-25T12:11:20.052Z,29.20
2017-05-25T12:13:48.379Z,29.30
2017-05-25T12:16:16.725Z,26.90
2017-05-25T12:18:45.062Z,27.00
2017-05-25T12:21:13.410Z,29.90
2017-05-25T12:23:41.735Z,28.90
2017-05-25T12:26:10.041Z,28.00
2017-05-25T12:28:38.396Z,29.10
2017-05-25T12:31:06.789Z,30.70
2017-05-25T12:33:35.101Z,30.50
2017-05-25T12:36:03.439Z,30.90
2017-05-25T12:38:31.768Z,31.50
2017-05-25T12:41:00.112Z,29.40
2017-05-25T12:43:28.424Z,28.90
2017-05-25T12:45:56.760Z,28.70
2017-05-25T12:48:25.074Z,27.10
2017-05-25T12:50:53.413Z,29.10
2017-05-25T12:53:21.716Z,29.70
2017-05-25T12:55:50.024Z,28.20
2017-05-25T12:58:18.353Z,29.00
2017-05-25T13:00:46.664Z,28.90
2017-05-25T13:03:15.000Z,34.30
2017-05-25T13:05:43.336Z,34.10
2017-05-25T13:08:11.664Z,34.50
2017-05-25T13:10:39.986Z,34.80
2017-05-25T13:13:08.328Z,34.60
2017-05-25T13:15:36.659Z,34.00
2017-05-25T13:18:04.985Z,29.70
2017-05-25T13:20:33.311Z,30.00
2017-05-25T13:23:01.620Z,32.30
2017-05-25T13:25:30.006Z,32.80
2017-05-25T13:27:58.332Z,32.40
2017-05-25T13:30:26.676Z,31.90
2017-05-25T13:32:54.997Z,28.70
2017-05-25T13:35:23.356Z,29.00
2017-05-25T13:37:51.665Z,30.40
2017-05-25T13:40:19.968Z,30.50
2017-05-25T13:42:48.305Z,29.00
2017-05-25T13:45:16.614Z,26.40
2017-05-25T13:47:44.947Z,28.80
2017-05-25T13:50:13.262Z,30.10
2017-05-25T13:52:41.601Z,31.50
2017-05-25T13:55:09.921Z,29.80
2017-05-25T13:57:38.308Z,28.30
2017-05-25T14:00:06.620Z,28.50
2017-05-25T14:02:34.970Z,29.50
2017-05-25T14:05:03.303Z,30.00
2017-05-25T14:07:31.617Z,30.20
2017-05-25T14:09:59.945Z,29.90
2017-05-25T14:12:28.270Z,32.50
2017-05-25T14:14:56.599Z,34.00
2017-05-25T14:17:24.915Z,33.90
2017-05-25T14:19:53.264Z,33.90
2017-05-25T14:22:21.578Z,30.80
2017-05-25T14:24:49.904Z,29.90
2017-05-25T14:27:18.242Z,33.30
2017-05-25T14:29:46.588Z,30.70
2017-05-25T14:32:14.917Z,31.70
2017-05-25T14:34:43.240Z,32.10
2017-05-25T14:37:11.580Z,33.50
2017-05-25T14:39:39.905Z,31.60
2017-05-25T14:42:08.249Z,32.50
2017-05-25T14:44:36.563Z,32.20
2017-05-25T14:47:04.884Z,31.00
2017-05-25T14:49:33.216Z,32.60
2017-05-25T14:52:01.528Z,34.20
2017-05-25T14:54:29.863Z,33.10
2017-05-25T14:56:58.179Z,33.30
2017-05-25T14:59:26.516Z,33.90
2017-05-25T15:01:54.835Z,34.30
2017-05-25T15:04:23.169Z,35.20
2017-05-25T15:06:51.491Z,36.30
2017-05-25T15:09:19.813Z,33.40
2017-05-25T15:11:48.158Z,36.40
2017-05-25T15:14:16.462Z,35.30
2017-05-25T15:16:44.792Z,36.30
2017-05-25T15:19:13.121Z,35.90
2017-05-25T15:21:41.451Z,36.10
2017-05-25T15:24:09.782Z,38.00
2017-05-25T15:26:38.145Z,37.30
2017-05-25T15:29:06.461Z,34.60
2017-05-25T15:31:34.789Z,36.00
2017-05-25T15:34:03.132Z,35.30
2017-05-25T15:36:31.444Z,33.40
2017-05-25T15:38:59.776Z,32.10
2017-05-25T15:41:28.131Z,34.00
2017-05-25T15:43:56.466Z,33.30
2017-05-25T15:46:24.772Z,32.50
2017-05-25T15:48:53.112Z,33.60
2017-05-25T15:51:21.433Z,36.10
2017-05-25T15:53:49.784Z,37.10
2017-05-25T15:56:18.121Z,38.20
2017-05-25T15:58:46.452Z,40.50
2017-05-25T16:01:14.773Z,37.30
2017-05-25T16:03:43.097Z,38.90
2017-05-25T16:06:11.423Z,36.70
2017-05-25T16:08:39.740Z,38.00
2017-05-25T16:11:08.093Z,38.30
2017-05-25T16:13:36.404Z,39.30
2017-05-25T16:16:04.738Z,38.80
2017-05-25T16:18:33.056Z,38.50
2017-05-25T16:21:01.397Z,37.00
2017-05-25T16:23:29.735Z,37.10
2017-05-25T16:25:58.036Z,38.30
2017-05-25T16:28:26.376Z,38.40
2017-05-25T16:30:54.685Z,39.80
2017-05-25T16:33:23.027Z,39.90
2017-05-25T16:35:51.351Z,40.40
2017-05-25T16:38:19.691Z,39.90
2017-05-25T16:40:48.004Z,39.10
2017-05-25T16:43:16.337Z,38.90
2017-05-25T16:45:44.654Z,38.90
2017-05-25T16:48:12.984Z,38.40
2017-05-25T16:50:41.299Z,38.10
2017-05-25T16:53:09.623Z,37.10
2017-05-25T16:55:37.956Z,38.10
2017-05-25T16:58:06.273Z,40.60
2017-05-25T17:00:34.596Z,40.00
2017-05-25T17:03:02.911Z,39.50
2017-05-25T17:05:31.256Z,40.30
2017-05-25T17:07:59.555Z,41.10
2017-05-25T17:10:27.896Z,39.10
2017-05-25T17:12:56.224Z,38.60
2017-05-25T17:15:24.547Z,40.90
2017-05-25T17:17:52.894Z,41.30
2017-05-25T17:20:21.219Z,41.00
2017-05-25T17:22:49.552Z,40.30
2017-05-25T17:25:17.855Z,40.70
2017-05-25T17:27:46.196Z,40.00
2017-05-25T17:30:14.996Z,39.90
2017-05-25T17:32:43.448Z,40.00
2017-05-25T17:35:11.813Z,40.70
2017-05-25T17:37:40.134Z,41.50
2017-05-25T17:40:08.567Z,42.30
2017-05-25T17:42:36.963Z,42.30
2017-05-25T17:45:05.390Z,42.20
2017-05-25T17:47:33.789Z,42.30
2017-05-25T17:50:02.234Z,43.40
2017-05-25T17:52:30.656Z,43.30
2017-05-25T17:54:59.100Z,43.20
2017-05-25T17:57:27.516Z,43.40
2017-05-25T17:59:55.915Z,44.10
2017-05-25T18:02:24.256Z,45.30
2017-05-25T18:04:52.560Z,44.80
2017-05-25T18:07:20.883Z,44.80
2017-05-25T18:09:49.185Z,44.80
2017-05-25T18:12:17.515Z,44.70
2017-05-25T18:14:45.832Z,45.30
2017-05-25T18:17:14.171Z,45.90
2017-05-25T18:19:42.504Z,46.40
2017-05-25T18:22:10.862Z,47.70
2017-05-25T18:24:39.177Z,47.80
2017-05-25T18:27:07.491Z,48.00
2017-05-25T18:29:35.825Z,48.70
2017-05-25T18:32:04.148Z,48.30
2017-05-25T18:34:32.484Z,47.00
2017-05-25T18:37:00.806Z,47.20
2017-05-25T18:39:29.140Z,47.10
2017-05-25T18:41:57.457Z,46.70
2017-05-25T18:44:25.786Z,46.80
2017-05-25T18:46:54.108Z,47.00
2017-05-25T18:49:22.470Z,46.90
2017-05-25T18:51:50.788Z,47.60
2017-05-25T18:54:19.107Z,48.30
2017-05-25T18:56:47.448Z,47.60
2017-05-25T18:59:15.794Z,47.70
2017-05-25T19:01:44.127Z,48.00
2017-05-25T19:04:12.456Z,48.20
2017-05-25T19:06:40.780Z,48.30
2017-05-25T19:09:09.123Z,49.40
2017-05-25T19:11:37.448Z,50.70
2017-05-25T19:14:04.984Z,50.70
2017-05-25T19:16:33.316Z,54.50
2017-05-25T19:19:00.848Z,54.50
2017-05-25T19:21:29.162Z,55.80
2017-05-25T19:23:57.493Z,56.20
2017-05-25T19:26:25.805Z,56.20
2017-05-25T19:28:54.128Z,57.00
2017-05-25T19:31:22.443Z,57.40
2017-05-25T19:33:50.763Z,57.80
2017-05-25T19:36:19.064Z,58.10
2017-05-25T19:38:47.391Z,57.90
2017-05-25T19:41:15.691Z,57.60
2017-05-25T19:43:44.042Z,59.10
2017-05-25T19:46:12.349Z,60.80
2017-05-25T19:48:40.660Z,61.30
2017-05-25T19:51:08.992Z,60.90
2017-05-25T19:53:37.291Z,60.20
2017-05-25T19:56:05.616Z,60.10
2017-05-25T19:58:33.919Z,61.40
2017-05-25T20:01:02.240Z,62.60
2017-05-25T20:03:30.535Z,63.30
2017-05-25T20:05:58.866Z,63.40
2017-05-25T20:08:27.163Z,63.00
2017-05-25T20:10:55.491Z,62.20
2017-05-25T20:13:23.788Z,62.00
2017-05-25T20:15:52.164Z,61.50
2017-05-25T20:18:20.567Z,61.40
2017-05-25T20:20:48.968Z,62.50
2017-05-25T20:23:17.283Z,63.20
2017-05-25T20:25:45.590Z,64.30
2017-05-25T20:28:13.933Z,65.20
2017-05-25T20:30:42.227Z,65.00
2017-05-25T20:33:10.538Z,65.40
2017-05-25T20:35:38.859Z,65.20
2017-05-25T20:38:07.170Z,64.90
2017-05-25T20:40:35.499Z,64.70
2017-05-25T20:43:03.795Z,64.50
2017-05-25T20:45:32.119Z,64.50
2017-05-25T20:48:00.448Z,64.20
2017-05-25T20:50:28.768Z,64.20
2017-05-25T20:52:57.067Z,65.60
2017-05-25T20:55:25.384Z,66.80
2017-05-25T20:57:53.683Z,67.90
2017-05-25T21:00:22.024Z,67.80
2017-05-25T21:02:50.324Z,67.80
2017-05-25T21:05:17.864Z,67.80
2017-05-25T21:07:46.193Z,68.30
2017-05-25T21:10:14.496Z,68.10
2017-05-25T21:12:42.812Z,68.60
2017-05-25T21:15:11.112Z,68.60
2017-05-25T21:17:39.437Z,68.60
2017-05-25T21:20:07.755Z,68.60
2017-05-25T21:22:36.080Z,68.60
2017-05-25T21:25:04.375Z,68.30
2017-05-25T21:27:32.704Z,68.00
2017-05-25T21:30:00.999Z,68.30
2017-05-25T21:32:29.305Z,68.60
2017-05-25T21:34:57.624Z,67.30
2017-05-25T21:37:25.924Z,66.60
2017-05-25T21:39:54.244Z,66.80
2017-05-25T21:42:22.542Z,67.30
2017-05-25T21:44:50.879Z,68.10
2017-05-25T21:47:19.177Z,69.20
2017-05-25T21:49:47.475Z,69.90
2017-05-25T21:52:15.800Z,70.70
2017-05-25T21:54:44.098Z,70.80
2017-05-25T21:57:12.411Z,70.80
2017-05-25T21:59:40.711Z,71.20
2017-05-25T22:02:09.051Z,70.70
2017-05-25T22:04:37.356Z,70.30
2017-05-25T22:07:05.658Z,70.50
2017-05-25T22:09:33.975Z,70.50
2017-05-25T22:12:02.280Z,70.10
2017-05-25T22:14:30.599Z,70.10
2017-05-25T22:16:58.895Z,70.40
2017-05-25T22:19:27.223Z,70.90
2017-05-25T22:21:55.532Z,71.20
2017-05-25T22:24:23.867Z,71.20
2017-05-25T22:26:52.169Z,71.10
2017-05-25T22:29:20.474Z,68.70
2017-05-25T22:31:48.792Z,68.20
2017-05-25T22:34:17.104Z,68.50
2017-05-25T22:36:45.421Z,68.80
2017-05-25T22:39:13.721Z,69.10
2017-05-25T22:41:42.035Z,70.60
2017-05-25T22:44:10.345Z,71.40
2017-05-25T22:46:38.672Z,72.00
2017-05-25T22:49:06.966Z,72.30
2017-05-25T22:51:35.270Z,72.10
2017-05-25T22:54:03.588Z,71.50
2017-05-25T22:56:31.892Z,70.40
2017-05-25T22:59:00.215Z,70.80
2017-05-25T23:01:28.716Z,72.60
2017-05-25T23:03:57.035Z,73.80
2017-05-25T23:06:25.343Z,74.50
2017-05-25T23:08:53.700Z,74.90
2017-05-25T23:11:22.019Z,74.60
2017-05-25T23:13:50.325Z,74.60
2017-05-25T23:16:18.655Z,75.10
2017-05-25T23:18:46.962Z,75.70
2017-05-25T23:21:15.292Z,75.70
2017-05-25T23:23:43.592Z,75.00
2017-05-25T23:26:11.918Z,75.30
2017-05-25T23:28:40.221Z,73.60
2017-05-25T23:31:08.554Z,73.00
2017-05-25T23:33:36.859Z,71.60
2017-05-25T23:36:05.207Z,70.70
2017-05-25T23:38:33.504Z,72.60
2017-05-25T23:41:01.811Z,74.10
2017-05-25T23:43:30.137Z,75.10
2017-05-25T23:45:58.442Z,75.20
2017-05-25T23:48:26.775Z,74.90
2017-05-25T23:50:55.072Z,73.40
2017-05-25T23:53:23.395Z,74.70
2017-05-25T23:55:51.702Z,75.60
2017-05-25T23:58:20.020Z,76.60
